sensor_id;sensor_type;location;lat;lon;timestamp;pressure;altitude;pressure_sealevel;temperature;humidity
45939;BME280;31650;48.818;9.116;2022-07-29T00:13:36;97737.16;;;18.64;100.00
45939;BME280;31650;48.818;9.116;2022-07-29T00:28:37;97750.13;;;18.38;100.00
45939;BME280;31650;48.818;9.116;2022-07-29T00:43:37;97751.97;;;17.66;100.00
45939;BME280;31650;48.818;9.116;2022-07-29T00:58:37;97755.16;;;17.32;100.00
45939;BME280;31650;48.818;9.116;2022-07-29T01:13:38;97745.00;;;17.38;100.00
45939;BME280;31650;48.818;9.116;2022-07-29T01:28:49;97716.56;;;18.10;100.00
45939;BME280;31650;48.818;9.116;2022-07-29T01:43:56;97698.66;;;18.39;100.00
45939;BME280;31650;48.818;9.116;2022-07-29T01:58:57;97694.56;;;18.26;100.00
45939;BME280;31650;48.818;9.116;2022-07-29T02:13:58;97673.09;;;18.38;100.00
45939;BME280;31650;48.818;9.116;2022-07-29T02:29:00;97669.78;;;18.36;100.00
45939;BME280;31650;48.818;9.116;2022-07-29T02:44:02;97687.97;;;17.86;100.00
45939;BME280;31650;48.818;9.116;2022-07-29T02:59:06;97705.47;;;17.44;100.00
45939;BME280;31650;48.818;9.116;2022-07-29T03:14:07;97724.44;;;17.51;100.00
45939;BME280;31650;48.818;9.116;2022-07-29T03:29:08;97710.75;;;17.66;100.00
45939;BME280;31650;48.818;9.116;2022-07-29T03:44:08;97711.25;;;17.63;100.00
45939;BME280;31650;48.818;9.116;2022-07-29T03:59:09;97731.53;;;17.31;100.00
45939;BME280;31650;48.818;9.116;2022-07-29T04:14:10;97731.50;;;17.21;100.00
45939;BME280;31650;48.818;9.116;2022-07-29T04:29:10;97726.59;;;17.38;100.00
45939;BME280;31650;48.818;9.116;2022-07-29T04:44:11;97723.63;;;17.60;100.00
45939;BME280;31650;48.818;9.116;2022-07-29T04:59:12;97708.59;;;18.19;100.00
45939;BME280;31650;48.818;9.116;2022-07-29T05:14:12;97707.41;;;18.66;100.00
45939;BME280;31650;48.818;9.116;2022-07-29T05:29:12;97688.53;;;19.64;100.00
45939;BME280;31650;48.818;9.116;2022-07-29T05:44:12;97678.88;;;21.13;100.00
45939;BME280;31650;48.818;9.116;2022-07-29T05:59:13;97680.91;;;22.67;100.00
45939;BME280;31650;48.818;9.116;2022-07-29T06:14:14;97688.59;;;24.80;100.00
45939;BME280;31650;48.818;9.116;2022-07-29T06:29:14;97708.00;;;25.11;100.00
45939;BME280;31650;48.818;9.116;2022-07-29T06:44:14;97701.22;;;25.26;100.00
45939;BME280;31650;48.818;9.116;2022-07-29T06:59:15;97713.38;;;25.47;100.00
45939;BME280;31650;48.818;9.116;2022-07-29T07:14:15;97713.06;;;26.45;100.00
45939;BME280;31650;48.818;9.116;2022-07-29T07:29:19;97729.97;;;27.22;100.00
45939;BME280;31650;48.818;9.116;2022-07-29T07:44:19;97733.00;;;26.90;100.00
45939;BME280;31650;48.818;9.116;2022-07-29T07:59:19;97732.72;;;28.65;98.56
45939;BME280;31650;48.818;9.116;2022-07-29T08:14:20;97738.16;;;28.95;93.37
45939;BME280;31650;48.818;9.116;2022-07-29T08:29:20;97731.06;;;30.64;78.64
45939;BME280;31650;48.818;9.116;2022-07-29T08:44:20;97729.56;;;30.39;73.00
45939;BME280;31650;48.818;9.116;2022-07-29T08:59:22;97730.56;;;30.46;69.27
45939;BME280;31650;48.818;9.116;2022-07-29T09:14:22;97742.09;;;30.85;60.96
45939;BME280;31650;48.818;9.116;2022-07-29T09:29:23;97724.09;;;31.50;61.64
45939;BME280;31650;48.818;9.116;2022-07-29T09:44:24;97720.41;;;30.70;68.92
45939;BME280;31650;48.818;9.116;2022-07-29T09:59:24;97719.63;;;30.41;71.27
45939;BME280;31650;48.818;9.116;2022-07-29T10:14:26;97725.72;;;27.45;93.46
45939;BME280;31650;48.818;9.116;2022-07-29T10:29:26;97718.69;;;27.01;94.43
45939;BME280;31650;48.818;9.116;2022-07-29T10:44:27;97712.63;;;26.25;94.73
45939;BME280;31650;48.818;9.116;2022-07-29T10:59:27;97722.63;;;24.94;100.00
45939;BME280;31650;48.818;9.116;2022-07-29T11:29:53;97755.81;;;23.09;100.00
45939;BME280;31650;48.818;9.116;2022-07-29T11:59:58;97722.47;;;26.31;100.00
45939;BME280;31650;48.818;9.116;2022-07-29T12:15:07;97713.34;;;26.78;100.00
45939;BME280;31650;48.818;9.116;2022-07-29T12:30:11;97724.75;;;25.86;100.00
45939;BME280;31650;48.818;9.116;2022-07-29T12:45:12;97728.22;;;25.34;100.00
45939;BME280;31650;48.818;9.116;2022-07-29T13:00:13;97734.56;;;24.41;100.00
45939;BME280;31650;48.818;9.116;2022-07-29T13:15:14;97747.31;;;24.56;100.00
45939;BME280;31650;48.818;9.116;2022-07-29T13:30:15;97752.56;;;24.21;100.00
45939;BME280;31650;48.818;9.116;2022-07-29T13:45:15;97731.69;;;25.48;100.00
45939;BME280;31650;48.818;9.116;2022-07-29T14:00:15;97721.25;;;27.53;100.00
45939;BME280;31650;48.818;9.116;2022-07-29T14:15:16;97689.31;;;28.46;92.57
45939;BME280;31650;48.818;9.116;2022-07-29T14:30:17;97694.25;;;28.74;77.74
45939;BME280;31650;48.818;9.116;2022-07-29T14:45:17;97701.22;;;29.01;75.28
45939;BME280;31650;48.818;9.116;2022-07-29T15:00:17;97711.16;;;29.11;69.36
45939;BME280;31650;48.818;9.116;2022-07-29T15:15:18;97725.50;;;28.43;77.43
45939;BME280;31650;48.818;9.116;2022-07-29T15:30:18;97718.72;;;28.53;78.09
45939;BME280;31650;48.818;9.116;2022-07-29T15:45:22;97725.88;;;27.99;80.82
45939;BME280;31650;48.818;9.116;2022-07-29T16:00:28;97722.28;;;27.99;82.89
45939;BME280;31650;48.818;9.116;2022-07-29T16:15:30;97719.00;;;28.18;67.36
45939;BME280;31650;48.818;9.116;2022-07-29T16:30:30;97723.69;;;27.84;81.46
45939;BME280;31650;48.818;9.116;2022-07-29T16:45:31;97717.16;;;28.01;72.72
45939;BME280;31650;48.818;9.116;2022-07-29T17:00:32;97727.34;;;27.46;83.87
45939;BME280;31650;48.818;9.116;2022-07-29T17:15:32;97735.41;;;27.48;100.00
45939;BME280;31650;48.818;9.116;2022-07-29T17:30:32;97737.47;;;28.10;96.73
45939;BME280;31650;48.818;9.116;2022-07-29T17:45:32;97738.81;;;28.04;92.38
45939;BME280;31650;48.818;9.116;2022-07-29T18:00:33;97747.41;;;28.41;82.77
45939;BME280;31650;48.818;9.116;2022-07-29T18:15:34;97758.97;;;28.73;77.62
45939;BME280;31650;48.818;9.116;2022-07-29T18:30:34;97770.97;;;26.30;63.31
45939;BME280;31650;48.818;9.116;2022-07-29T18:45:36;97776.75;;;24.88;100.00
45939;BME280;31650;48.818;9.116;2022-07-29T19:00:38;97781.84;;;23.91;100.00
45939;BME280;31650;48.818;9.116;2022-07-29T19:15:38;97797.03;;;22.83;100.00
45939;BME280;31650;48.818;9.116;2022-07-29T19:30:38;97825.06;;;22.62;100.00
45939;BME280;31650;48.818;9.116;2022-07-29T19:45:39;97843.44;;;22.39;100.00
45939;BME280;31650;48.818;9.116;2022-07-29T20:00:40;97848.78;;;21.20;100.00
45939;BME280;31650;48.818;9.116;2022-07-29T20:15:40;97867.47;;;20.70;100.00
45939;BME280;31650;48.818;9.116;2022-07-29T20:30:41;97849.88;;;20.66;100.00
45939;BME280;31650;48.818;9.116;2022-07-29T20:45:41;97847.34;;;20.25;100.00
45939;BME280;31650;48.818;9.116;2022-07-29T21:00:41;97865.31;;;19.68;100.00
45939;BME280;31650;48.818;9.116;2022-07-29T21:15:42;97868.50;;;18.84;100.00
45939;BME280;31650;48.818;9.116;2022-07-29T21:30:45;97886.38;;;18.61;100.00
45939;BME280;31650;48.818;9.116;2022-07-29T21:45:45;97900.94;;;18.26;100.00
45939;BME280;31650;48.818;9.116;2022-07-29T22:00:51;97895.50;;;17.78;100.00
45939;BME280;31650;48.818;9.116;2022-07-29T22:15:52;97905.31;;;17.54;100.00
45939;BME280;31650;48.818;9.116;2022-07-29T22:30:52;97909.16;;;17.10;100.00
45939;BME280;31650;48.818;9.116;2022-07-29T22:45:53;97918.91;;;16.64;100.00
45939;BME280;31650;48.818;9.116;2022-07-29T23:00:53;97927.66;;;16.60;100.00
45939;BME280;31650;48.818;9.116;2022-07-29T23:15:53;97918.72;;;16.75;100.00
45939;BME280;31650;48.818;9.116;2022-07-29T23:30:53;97925.53;;;16.68;100.00
45939;BME280;31650;48.818;9.116;2022-07-29T23:45:54;97944.09;;;16.82;100.00
